createdAt,value
2017-05-30T00:00:13.082Z,70.2
2017-05-30T00:10:16.359Z,69.7
2017-05-30T00:20:16.357Z,69.7
2017-05-30T00:30:16.358Z,69.1
2017-05-30T00:40:16.357Z,69.7
2017-05-30T00:50:16.363Z,69.1
2017-05-30T01:00:16.394Z,69.1
2017-05-30T01:10:16.454Z,69.1
2017-05-30T01:20:10.865Z,69.1
2017-05-30T01:30:06.359Z,68.6
2017-05-30T01:40:06.394Z,68.6
2017-05-30T01:50:06.364Z,68.6
2017-05-30T02:00:06.388Z,68.6
2017-05-30T02:10:06.358Z,68.6
2017-05-30T02:20:06.358Z,68.6
2017-05-30T02:30:03.978Z,68.6
2017-05-30T02:40:06.358Z,68.6
2017-05-30T02:50:06.356Z,68.6
2017-05-30T03:00:06.368Z,68.6
2017-05-30T03:10:06.359Z,68.1
2017-05-30T03:20:02.306Z,68.1
2017-05-30T03:30:06.360Z,68.6
2017-05-30T03:40:06.868Z,68.6
2017-05-30T03:50:06.357Z,68.1
2017-05-30T04:00:06.359Z,68.1
2017-05-30T04:10:06.390Z,68.1
2017-05-30T04:20:06.358Z,68.1
2017-05-30T04:30:06.431Z,68.1
2017-05-30T04:40:06.385Z,67.5
2017-05-30T04:50:06.397Z,68.1
2017-05-30T05:00:06.392Z,67.5
2017-05-30T05:10:06.356Z,68.1
2017-05-30T05:20:06.387Z,67.5
2017-05-30T05:30:06.359Z,67.5
2017-05-30T05:40:06.360Z,67
2017-05-30T05:50:06.361Z,67.5
2017-05-30T06:00:06.388Z,67
2017-05-30T06:10:06.358Z,67.5
2017-05-30T06:20:06.356Z,67
2017-05-30T06:30:06.391Z,68.1
2017-05-30T06:40:06.367Z,68.1
2017-05-30T06:50:06.360Z,68.1
2017-05-30T07:00:06.391Z,67.5
2017-05-30T07:10:06.341Z,68.6
2017-05-30T07:20:06.357Z,67.5
2017-05-30T07:30:06.359Z,68.1
2017-05-30T07:40:06.393Z,68.1
2017-05-30T07:50:06.366Z,67.5
2017-05-30T08:00:06.360Z,68.1
2017-05-30T08:10:06.389Z,68.1
2017-05-30T08:20:06.362Z,68.1
2017-05-30T08:30:06.359Z,68.1
2017-05-30T08:40:06.355Z,68.1
2017-05-30T08:50:06.397Z,68.1
2017-05-30T09:00:06.372Z,68.6
2017-05-30T09:10:06.360Z,68.6
2017-05-30T09:20:06.362Z,68.6
2017-05-30T09:30:06.357Z,69.1
2017-05-30T09:40:06.389Z,69.1
2017-05-30T09:50:06.392Z,69.1
2017-05-30T10:00:06.358Z,69.1
2017-05-30T10:10:06.415Z,69.1
2017-05-30T10:20:06.362Z,69.1
2017-05-30T10:30:06.418Z,69.1
2017-05-30T10:40:06.365Z,68.6
2017-05-30T10:50:06.360Z,68.6
2017-05-30T11:00:06.395Z,69.1
2017-05-30T11:10:06.358Z,68.6
2017-05-30T11:20:06.382Z,69.1
2017-05-30T11:30:06.376Z,69.1
2017-05-30T11:40:06.363Z,69.1
2017-05-30T11:50:06.359Z,69.1
2017-05-30T12:00:06.359Z,69.7
2017-05-30T12:10:06.356Z,69.1
2017-05-30T12:20:06.386Z,68.6
2017-05-30T12:30:06.394Z,68.6
2017-05-30T12:40:06.361Z,68.6
2017-05-30T12:50:06.368Z,68.6
2017-05-30T13:00:06.435Z,68.6
2017-05-30T13:10:06.343Z,68.6
2017-05-30T13:20:06.357Z,68.6
2017-05-30T13:30:06.387Z,69.1
2017-05-30T13:40:06.357Z,68.6
2017-05-30T13:50:06.366Z,68.6
2017-05-30T14:00:06.391Z,68.1
2017-05-30T14:10:06.356Z,68.6
2017-05-30T14:20:06.393Z,68.1
2017-05-30T14:30:06.388Z,68.1
2017-05-30T14:40:06.358Z,68.6
2017-05-30T14:50:06.400Z,69.1
2017-05-30T15:00:06.357Z,68.1
2017-05-30T15:10:06.365Z,68.6
2017-05-30T15:20:06.357Z,68.6
2017-05-30T15:30:06.425Z,68.1
2017-05-30T15:40:06.357Z,68.1
2017-05-30T15:50:06.370Z,68.1
2017-05-30T16:00:06.363Z,68.1
2017-05-30T16:10:05.234Z,68.1
2017-05-30T16:20:06.360Z,68.1
2017-05-30T16:30:06.358Z,68.6
2017-05-30T16:40:06.365Z,68.1
2017-05-30T16:50:06.389Z,68.6
2017-05-30T17:00:06.358Z,68.1
2017-05-30T17:10:06.388Z,68.1
2017-05-30T17:20:06.366Z,67.5
2017-05-30T17:30:06.359Z,68.1
2017-05-30T17:40:06.361Z,68.1
2017-05-30T17:50:06.365Z,68.1
2017-05-30T18:00:01.549Z,68.1
2017-05-30T18:10:06.401Z,68.1
2017-05-30T18:20:06.360Z,68.1
2017-05-30T18:30:06.391Z,68.1
2017-05-30T18:40:06.366Z,67
2017-05-30T18:50:05.772Z,67
2017-05-30T19:00:06.361Z,67
2017-05-30T19:10:06.409Z,66.4
2017-05-30T19:20:06.365Z,66.4
2017-05-30T19:30:06.393Z,66.4
2017-05-30T19:40:06.361Z,66.4
2017-05-30T19:50:06.361Z,66.4
2017-05-30T20:00:06.368Z,66.4
2017-05-30T20:10:06.367Z,66.4
2017-05-30T20:20:06.373Z,65.9
2017-05-30T20:30:06.392Z,66.4
2017-05-30T20:40:06.363Z,65.9
2017-05-30T20:50:06.361Z,65.9
2017-05-30T21:00:06.360Z,65.9
2017-05-30T21:10:06.359Z,65.9
2017-05-30T21:20:06.362Z,65.4
2017-05-30T21:30:06.362Z,65.9
2017-05-30T21:40:06.377Z,65.9
2017-05-30T21:50:06.359Z,65.4
2017-05-30T22:00:06.373Z,65.4
2017-05-30T22:10:06.358Z,64.8
2017-05-30T22:20:06.390Z,64.8
2017-05-30T22:30:06.391Z,64.8
2017-05-30T22:40:06.400Z,65.4
2017-05-30T22:50:06.367Z,65.4
2017-05-30T23:00:06.371Z,64.8
2017-05-30T23:10:06.366Z,64.8
2017-05-30T23:20:06.422Z,64.8
2017-05-30T23:30:06.362Z,64.8
2017-05-30T23:40:06.360Z,64.8
2017-05-30T23:50:06.402Z,63.8
